Belfast, ME (04915)

8:08 PM EDT on September 28, 2016 (GMT -0400)
Congress Street | | Change Station

Elev 170 ft 44.42 °N, 69.01 °W | Updated 32 seconds ago

Mostly Cloudy
Mostly Cloudy
59.2 °F
Feels Like 59.2 °F
N
0.6
Wind Variable Wind from West
Gusts 1.2 mph

Today
High -- | Low -- °F
--% Chance of Precip.
Yesterday
High -- | Low -- °F
Precip. -- in
Pressure 30.37 in
Visibility 10.0 miles
Clouds Mostly Cloudy 3800 ft
Dew Point 48 °F
Humidity 67%
Rainfall 0.00 in
Snow Depth Not available.
6:30 AM 6:21 PM
Waning Crescent, 4% visible
METAR KRKD 282356Z AUTO 06009KT 10SM BKN038 13/11 A3036 RMK AO2 SLP283 T01330106 10172 20122 51017
Pressure 30.37 in
Visibility 10.0 miles
Clouds Mostly Cloudy 3800 ft
Dew Point 48 °F
Humidity 67%
Rainfall 0.00 in
Snow Depth Not available.
6:30 AM 6:21 PM
Waning Crescent, 4% visible
METAR KRKD 282356Z AUTO 06009KT 10SM BKN038 13/11 A3036 RMK AO2 SLP283 T01330106 10172 20122 51017

10-Day Weather Forecast

Almanac

Astronomy

Sep. 28, 2016 Rise Set
Actual Time
Civil Twilight
Nautical Twilight
Astronomical Twilight
Moon
Length of Visible Light
Length of Day
Tomorrow will be .
, % of the Moon is Illuminated

Today's Extremes

State Highs State Lows

Community

WunderPhotos

Upload Photos

1,942,355 photos uploaded!

WunderBlog® & News

Nearby

Air Quality

  Air Quality AQ Index Pollutant
Not available.

Snow Depth

Station Depth Elevation

Earthquake Activity

City Distance Mag. Time & Date
Minimum magnitude displayed is 2.5.

Coastal Water Temperatures

Place Temperature

Stations

Nearby Weather Stations

Station Location Temp. Windchill Dew Point Humidity Wind Precip. Elev Updated Type
                   

Watches & Warnings

There are currently no watches in effect.